Time;durP1;ratioP1;P1;durP2;ratioP2;P2;SDS_P1;SDS_P2;PMS_P1;PMS_P2;Temp;Humidity;BMP_temperature;BMP_pressure;BME280_temperature;BME280_humidity;BME280_pressure;Samples;Min_cycle;Max_cycle;Signal;HPM_P1;HPM_P2
2022/12/12 00:00:00;;;;;;;42.92;22.17;;;;;;;-2.79;100.00;101090.16;5012656;28;20413;-83
2022/12/12 00:02:26;;;;;;;42.53;20.67;;;;;;;-2.82;100.00;101095.16;5013794;28;20052;-83
2022/12/12 00:04:51;;;;;;;41.25;20.52;;;;;;;-2.86;100.00;101096.75;5014092;28;20045;-83
2022/12/12 00:07:16;;;;;;;42.28;20.48;;;;;;;-2.95;100.00;101083.66;5012756;28;20469;-83
2022/12/12 00:09:42;;;;;;;43.22;20.90;;;;;;;-2.92;100.00;101095.66;5013960;28;20025;-82
2022/12/12 00:12:07;;;;;;;46.28;21.30;;;;;;;-2.96;100.00;101093.81;5013432;28;20377;-83
2022/12/12 00:14:33;;;;;;;41.75;21.85;;;;;;;-3.02;100.00;101097.00;5011937;28;20080;-83
2022/12/12 00:16:58;;;;;;;41.15;21.55;;;;;;;-3.14;100.00;101077.06;5010973;28;20036;-83
2022/12/12 00:19:24;;;;;;;46.30;21.92;;;;;;;-3.07;100.00;101094.31;5011037;28;20469;-82
2022/12/12 00:21:49;;;;;;;41.45;21.10;;;;;;;-3.09;100.00;101093.38;5011569;28;20029;-82
2022/12/12 00:24:14;;;;;;;45.97;20.88;;;;;;;-3.12;100.00;101088.16;4998540;28;20032;-82
2022/12/12 00:26:40;;;;;;;43.45;21.17;;;;;;;-3.16;100.00;101091.44;5010952;28;20465;-82
2022/12/12 00:29:06;;;;;;;40.80;20.52;;;;;;;-3.18;100.00;101087.94;5007238;28;20018;-83
2022/12/12 00:31:31;;;;;;;45.25;21.35;;;;;;;-3.17;100.00;101097.34;5012382;28;20469;-82
2022/12/12 00:33:57;;;;;;;42.67;21.33;;;;;;;-3.22;100.00;101091.19;5010658;28;20076;-82
2022/12/12 00:36:26;;;;;;;42.30;21.15;;;;;;;-3.28;100.00;101085.88;5011516;28;20025;-82
2022/12/12 00:38:52;;;;;;;40.30;20.60;;;;;;;-3.24;100.00;101097.91;5005983;28;20508;-82
2022/12/12 00:41:18;;;;;;;43.55;21.88;;;;;;;-3.27;100.00;101099.50;5012676;28;20465;-82
2022/12/12 00:43:44;;;;;;;44.00;21.73;;;;;;;-3.31;100.00;101098.50;5012096;28;20508;-82
2022/12/12 00:46:17;;;;;;;42.17;20.48;;;;;;;-3.32;100.00;101106.97;5012986;28;20049;-82
2022/12/12 00:48:43;;;;;;;41.25;20.58;;;;;;;-3.39;100.00;101102.47;4998752;28;20029;-82
2022/12/12 00:51:12;;;;;;;44.25;20.55;;;;;;;-3.39;100.00;101105.88;5010067;28;20026;-82
2022/12/12 00:53:38;;;;;;;43.03;21.10;;;;;;;-3.42;100.00;101100.66;5010794;28;20026;-82
2022/12/12 00:56:04;;;;;;;42.03;21.10;;;;;;;-3.45;100.00;101109.88;5010596;28;20026;-82
2022/12/12 00:58:30;;;;;;;44.53;20.58;;;;;;;-3.53;100.00;101097.72;5010273;28;20481;-82
2022/12/12 01:00:56;;;;;;;43.38;20.83;;;;;;;-3.49;100.00;101111.47;5009732;28;20030;-82
2022/12/12 01:03:21;;;;;;;41.92;20.35;;;;;;;-3.49;100.00;101111.47;5011847;28;20084;-82
2022/12/12 01:05:47;;;;;;;41.97;20.52;;;;;;;-3.56;100.00;101105.25;5006609;28;20026;-82
2022/12/12 01:08:12;;;;;;;46.00;21.40;;;;;;;-3.53;100.00;101112.16;5004422;28;20022;-82
2022/12/12 01:10:38;;;;;;;42.35;20.05;;;;;;;-3.57;100.00;101117.94;5010933;28;20029;-82
2022/12/12 01:13:03;;;;;;;40.17;19.63;;;;;;;-3.62;100.00;101117.75;5011174;28;20144;-82
2022/12/12 01:15:29;;;;;;;42.72;21.65;;;;;;;-3.62;100.00;101122.00;5009830;28;20147;-82
2022/12/12 01:17:54;;;;;;;47.22;21.45;;;;;;;-3.64;100.00;101119.38;5007914;28;20033;-82
2022/12/12 01:20:23;;;;;;;41.53;22.90;;;;;;;-3.63;100.00;101123.69;5012372;28;20533;-82
2022/12/12 01:22:49;;;;;;;44.35;21.92;;;;;;;-3.66;100.00;101128.66;5012555;28;20030;-82
2022/12/12 01:25:15;;;;;;;44.55;21.13;;;;;;;-3.68;100.00;101137.91;5011020;28;20053;-82
2022/12/12 01:27:40;;;;;;;48.53;21.33;;;;;;;-3.71;100.00;101136.94;5012445;28;20482;-82
2022/12/12 01:30:07;;;;;;;40.85;20.80;;;;;;;-3.73;100.00;101139.41;5005978;28;20037;-82
2022/12/12 01:32:32;;;;;;;48.10;21.63;;;;;;;-3.82;100.00;101122.09;5012385;28;20433;-82
2022/12/12 01:34:58;;;;;;;41.92;20.52;;;;;;;-3.81;100.00;101133.16;5015596;28;20101;-82
2022/12/12 01:37:23;;;;;;;44.63;20.63;;;;;;;-3.84;100.00;101143.22;5011620;28;20497;-82
2022/12/12 01:39:49;;;;;;;47.28;21.75;;;;;;;-3.82;100.00;101146.69;5002459;28;20493;-82
2022/12/12 01:42:17;;;;;;;41.60;20.23;;;;;;;-3.87;100.00;101138.00;5015587;28;20109;-82
2022/12/12 01:44:51;;;;;;;44.97;21.02;;;;;;;-3.89;100.00;101143.03;5016152;28;20022;-82
2022/12/12 01:47:20;;;;;;;47.75;22.02;;;;;;;-3.94;100.00;101141.97;5014153;28;20038;-82
2022/12/12 01:49:51;;;;;;;43.17;21.52;;;;;;;-3.98;100.00;101142.66;5016051;28;20017;-81
2022/12/12 01:52:20;;;;;;;43.85;20.73;;;;;;;-3.97;100.00;101154.59;5015350;28;20022;-81
2022/12/12 01:54:50;;;;;;;45.90;21.23;;;;;;;-4.00;100.00;101151.91;5016397;28;20029;-81
2022/12/12 01:57:31;;;;;;;45.50;21.85;;;;;;;-4.06;100.00;101152.53;5002589;28;20091;-82
2022/12/12 01:59:58;;;;;;;40.00;20.23;;;;;;;-4.05;100.00;101149.19;5014705;28;20075;-81
2022/12/12 02:02:24;;;;;;;44.20;20.85;;;;;;;-4.13;100.00;101144.59;5015701;28;20590;-82
2022/12/12 02:04:49;;;;;;;48.28;22.02;;;;;;;-4.07;100.00;101160.97;5016273;28;20101;-82
2022/12/12 02:07:16;;;;;;;44.03;21.10;;;;;;;-4.10;100.00;101160.84;5015141;28;20033;-82
2022/12/12 02:09:42;;;;;;;45.55;22.08;;;;;;;-4.12;100.00;101165.03;5016045;28;20132;-82
2022/12/12 02:12:12;;;;;;;48.92;22.20;;;;;;;-4.13;100.00;101163.28;5015967;28;20025;-82
2022/12/12 02:14:40;;;;;;;45.95;21.27;;;;;;;-4.14;100.00;101160.69;5015242;28;20030;-82
2022/12/12 02:17:30;;;;;;;44.25;21.25;;;;;;;-4.16;100.00;101163.16;5005355;28;20042;-82
2022/12/12 02:20:32;;;;;;;44.60;21.85;;;;;;;-4.19;100.00;101157.94;5013622;28;20485;-82
2022/12/12 02:23:38;;;;;;;45.53;21.70;;;;;;;-4.20;100.00;101170.63;5011046;28;20032;-81
2022/12/12 02:26:14;;;;;;;42.83;21.65;;;;;;;-4.21;100.00;101173.97;4998481;28;20499;-81
2022/12/12 02:29:00;;;;;;;48.50;21.73;;;;;;;-4.24;100.00;101162.84;5010774;28;20068;-81
2022/12/12 02:31:33;;;;;;;43.08;20.95;;;;;;;-4.26;100.00;101172.06;5007896;28;20033;-82
2022/12/12 02:34:04;;;;;;;45.17;21.42;;;;;;;-4.27;100.00;101177.13;5013978;28;20045;-82
2022/12/12 02:36:42;;;;;;;46.47;22.50;;;;;;;-4.28;100.00;101176.25;5014972;28;20394;-81
2022/12/12 02:39:14;;;;;;;42.03;21.65;;;;;;;-4.35;100.00;101161.53;5008889;28;20035;-81
2022/12/12 02:41:42;;;;;;;48.03;22.13;;;;;;;-4.31;100.00;101175.25;5014129;28;20034;-81
2022/12/12 02:44:25;;;;;;;40.42;19.85;;;;;;;-4.33;100.00;101179.41;5014063;28;20381;-81
2022/12/12 02:46:59;;;;;;;44.90;20.33;;;;;;;-4.34;100.00;101177.69;5015208;28;20037;-81
2022/12/12 02:49:31;;;;;;;45.92;21.00;;;;;;;-4.40;100.00;101164.69;5008587;28;20038;-81
2022/12/12 02:51:58;;;;;;;43.08;21.60;;;;;;;-4.40;100.00;101178.28;5003014;28;20064;-81
2022/12/12 02:54:23;;;;;;;45.53;20.88;;;;;;;-4.41;100.00;101173.13;5013389;28;20413;-81
2022/12/12 02:56:56;;;;;;;42.50;20.48;;;;;;;-4.43;100.00;101175.59;5013578;28;20080;-81
2022/12/12 02:59:24;;;;;;;44.38;20.08;;;;;;;-4.52;100.00;101165.88;5013930;28;20037;-81
2022/12/12 03:02:06;;;;;;;43.95;20.67;;;;;;;-4.49;100.00;101176.19;5012860;28;20109;-81
2022/12/12 03:07:54;;;;;;;44.22;19.65;;;;;;;-4.51;100.00;101167.66;5012414;28;20389;-82
2022/12/12 03:10:38;;;;;;;46.88;20.55;;;;;;;-4.53;100.00;101166.72;5012391;28;20026;-81
2022/12/12 03:13:12;;;;;;;;;;;;;;;-4.55;100.00;101168.31;5014355;28;20033;-81
2022/12/12 03:16:05;;;;;;;38.83;18.60;;;;;;;-4.59;100.00;101163.91;5013013;28;19913;-81
2022/12/12 03:18:52;;;;;;;45.00;21.88;;;;;;;-4.60;100.00;101167.25;5012113;28;20032;-81
2022/12/12 03:21:31;;;;;;;44.33;19.73;;;;;;;-4.62;100.00;101163.75;5002750;28;20119;-81
2022/12/12 03:24:02;;;;;;;44.08;19.95;;;;;;;-4.64;100.00;101161.94;5013071;28;20029;-81
2022/12/12 03:26:34;;;;;;;45.67;19.55;;;;;;;-4.68;100.00;101163.50;5013381;28;20046;-81
2022/12/12 03:29:08;;;;;;;41.63;21.15;;;;;;;-4.71;100.00;101166.81;5006825;28;20148;-81
2022/12/12 03:31:37;;;;;;;49.45;20.48;;;;;;;-4.70;100.00;101165.13;5000687;28;20034;-81
2022/12/12 03:34:09;;;;;;;48.67;21.55;;;;;;;-4.72;100.00;101166.72;5011218;28;20018;-81
2022/12/12 03:36:55;;;;;;;49.55;21.30;;;;;;;-4.75;100.00;101164.03;5012103;28;20037;-81
2022/12/12 03:39:30;;;;;;;47.17;20.40;;;;;;;-4.78;100.00;101162.22;5011322;28;20054;-81
2022/12/12 03:42:04;;;;;;;47.58;19.70;;;;;;;-4.89;100.00;101142.22;5013640;28;20026;-82
2022/12/12 03:44:33;;;;;;;;;;;;;;;-4.80;100.00;101168.06;5012732;28;20025;-81
2022/12/12 03:47:10;;;;;;;45.55;19.48;;;;;;;-4.82;100.00;101170.53;5014322;28;19956;-81
2022/12/12 03:50:04;;;;;;;46.83;20.55;;;;;;;-4.83;100.00;101170.47;5012324;28;20025;-81
2022/12/12 03:52:44;;;;;;;46.13;21.08;;;;;;;-4.85;100.00;101174.63;4996295;28;20401;-81
2022/12/12 03:55:23;;;;;;;47.38;20.92;;;;;;;-4.85;100.00;101172.06;5011192;28;20041;-81
2022/12/12 03:57:56;;;;;;;45.45;20.38;;;;;;;-4.87;100.00;101171.13;5006604;28;20079;-81
2022/12/12 04:00:21;;;;;;;52.70;21.58;;;;;;;-4.96;100.00;101167.38;5003059;28;20029;-81
2022/12/12 04:03:17;;;;;;;46.40;21.48;;;;;;;-4.91;100.00;101170.13;5014002;28;20018;-81
2022/12/12 04:08:33;;;;;;;46.55;21.33;;;;;;;-5.03;100.00;101160.28;5013753;28;20087;-81
2022/12/12 04:14:26;;;;;;;45.95;22.60;;;;;;;-4.99;100.00;101171.47;5010745;28;20492;-81
2022/12/12 04:16:59;;;;;;;46.42;20.95;;;;;;;-5.08;100.00;101165.97;5010800;28;20037;-81
2022/12/12 04:26:37;;;;;;;43.78;19.95;;;;;;;-5.27;100.00;101157.50;5013020;28;20506;-81
2022/12/12 04:28:27;;;;;;;42.97;19.80;;;;;;;-5.20;100.00;101173.91;5012122;28;20277;-81
2022/12/12 04:30:55;;;;;;;45.17;19.77;;;;;;;-5.27;100.00;101184.59;5013288;28;20377;-81
2022/12/12 04:33:24;;;;;;;46.13;20.08;;;;;;;-5.30;100.00;101179.38;5010554;28;20053;-81
2022/12/12 04:35:52;;;;;;;48.88;20.92;;;;;;;-5.36;100.00;101174.00;5012503;28;20026;-81
2022/12/12 04:38:22;;;;;;;48.00;21.25;;;;;;;-5.27;100.00;101194.75;5012813;28;20022;-81
2022/12/12 04:40:54;;;;;;;44.67;20.27;;;;;;;-5.28;100.00;101198.09;5012590;28;20061;-81
2022/12/12 04:43:27;;;;;;;46.83;20.83;;;;;;;-5.32;100.00;101191.16;5013089;28;20064;-81
2022/12/12 04:45:57;;;;;;;51.22;21.25;;;;;;;-5.39;100.00;101195.09;5013451;28;20076;-81
2022/12/12 04:48:32;;;;;;;43.72;19.92;;;;;;;-5.43;100.00;101191.53;5012315;28;20010;-81
2022/12/12 04:50:59;;;;;;;42.03;20.20;;;;;;;-5.41;100.00;101196.66;5010433;28;20030;-81
2022/12/12 04:53:31;;;;;;;42.08;20.27;;;;;;;-5.38;100.00;101196.81;5013000;28;20034;-81
2022/12/12 04:56:00;;;;;;;45.22;20.25;;;;;;;-5.39;100.00;101194.22;5011209;28;20026;-81
2022/12/12 04:58:26;;;;;;;47.42;20.10;;;;;;;-5.43;100.00;101209.31;5000169;28;20112;-81
2022/12/12 05:00:54;;;;;;;42.78;19.38;;;;;;;-5.43;100.00;101204.22;5012811;28;20535;-81
2022/12/12 05:03:30;;;;;;;46.65;20.25;;;;;;;-5.43;100.00;101199.16;5011281;28;20604;-81
2022/12/12 05:06:09;;;;;;;41.33;19.70;;;;;;;-5.47;100.00;101201.47;5011343;28;20065;-81
2022/12/12 05:08:38;;;;;;;46.00;19.27;;;;;;;-5.49;100.00;101195.44;5009535;28;20182;-81
2022/12/12 05:11:05;;;;;;;40.55;19.35;;;;;;;-5.51;100.00;101197.91;5011929;28;20489;-81
2022/12/12 05:13:34;;;;;;;42.53;18.38;;;;;;;-5.54;100.00;101207.06;5012308;28;20029;-80
2022/12/12 05:16:02;;;;;;;48.05;20.98;;;;;;;-5.62;100.00;101194.00;5012074;28;20529;-81
2022/12/12 05:18:29;;;;;;;49.05;19.45;;;;;;;-5.60;100.00;101194.06;5012483;28;20049;-81
2022/12/12 05:20:54;;;;;;;38.28;18.38;;;;;;;-5.71;100.00;101194.44;5011473;28;20030;-81
2022/12/12 05:23:20;;;;;;;44.45;19.45;;;;;;;-5.63;100.00;101204.94;5005347;28;20048;-81
2022/12/12 05:25:45;;;;;;;41.00;17.80;;;;;;;-5.62;100.00;101214.31;5009782;28;20026;-81
2022/12/12 05:28:10;;;;;;;40.75;18.75;;;;;;;-5.61;100.00;101203.34;5007716;28;20038;-81
2022/12/12 05:30:36;;;;;;;42.92;19.58;;;;;;;-5.61;100.00;101213.50;5007774;28;20133;-80
2022/12/12 05:33:01;;;;;;;44.55;19.60;;;;;;;-5.63;100.00;101207.47;5012437;28;20033;-80
2022/12/12 05:35:26;;;;;;;41.22;19.35;;;;;;;-5.67;100.00;101197.97;5002295;28;20037;-80
2022/12/12 05:37:52;;;;;;;42.58;20.10;;;;;;;-5.63;100.00;101212.56;5003414;28;20033;-80
2022/12/12 05:40:18;;;;;;;47.63;19.77;;;;;;;-5.70;100.00;101195.28;5009502;28;20045;-80
2022/12/12 05:42:44;;;;;;;46.05;20.35;;;;;;;-5.64;100.00;101213.38;5010852;28;20018;-80
2022/12/12 05:45:09;;;;;;;45.55;19.35;;;;;;;-5.64;100.00;101218.44;5011448;28;20075;-80
2022/12/12 05:47:35;;;;;;;49.72;18.60;;;;;;;-5.68;100.00;101214.91;5011987;28;20045;-80
2022/12/12 05:50:00;;;;;;;42.60;18.75;;;;;;;-5.71;100.00;101204.59;5012641;28;20377;-80
2022/12/12 05:52:26;;;;;;;44.60;19.02;;;;;;;-5.65;100.00;101222.66;5011667;28;20381;-80
2022/12/12 05:54:51;;;;;;;47.15;19.23;;;;;;;-5.66;100.00;101217.50;5006845;28;20061;-80
2022/12/12 05:57:17;;;;;;;41.70;18.35;;;;;;;-5.76;100.00;101211.09;4999517;28;20353;-80
2022/12/12 05:59:44;;;;;;;44.97;19.48;;;;;;;-5.70;100.00;101213.94;5009445;28;20072;-80
2022/12/12 06:02:10;;;;;;;42.17;19.25;;;;;;;-5.71;100.00;101214.75;5012344;28;20057;-80
2022/12/12 06:04:35;;;;;;;48.08;20.50;;;;;;;-5.65;100.00;101219.25;5012552;28;20112;-80
2022/12/12 06:07:00;;;;;;;38.83;17.92;;;;;;;-5.71;100.00;101217.28;5011444;28;20056;-80
2022/12/12 06:09:26;;;;;;;44.45;17.80;;;;;;;-5.74;100.00;101211.19;5011943;28;20104;-80
2022/12/12 06:11:51;;;;;;;39.28;17.30;;;;;;;-5.74;100.00;101226.44;5012084;28;20033;-80
2022/12/12 06:14:16;;;;;;;39.72;18.30;;;;;;;-5.80;100.00;101221.91;5006723;28;20038;-80
2022/12/12 06:16:41;;;;;;;43.15;18.02;;;;;;;-5.76;100.00;101231.41;4995602;28;20128;-80
2022/12/12 06:19:07;;;;;;;39.72;18.17;;;;;;;-5.83;100.00;101221.75;5014362;28;20396;-80
2022/12/12 06:21:32;;;;;;;39.03;17.08;;;;;;;-5.88;100.00;101225.75;5015390;28;20030;-80
2022/12/12 06:23:58;;;;;;;47.83;18.58;;;;;;;-5.84;100.00;101231.84;5015006;28;20036;-80
2022/12/12 06:26:23;;;;;;;44.28;19.00;;;;;;;-5.92;100.00;101227.28;5014812;28;20097;-80
2022/12/12 06:28:48;;;;;;;46.30;17.38;;;;;;;-5.88;100.00;101234.25;5015611;28;20026;-80
2022/12/12 06:31:15;;;;;;;41.85;18.35;;;;;;;-5.89;100.00;101229.97;5010989;28;20097;-80
2022/12/12 06:33:41;;;;;;;43.60;17.45;;;;;;;-5.86;100.00;101235.97;5008273;28;20026;-80
2022/12/12 06:36:21;;;;;;;47.30;18.52;;;;;;;-5.86;100.00;101233.44;5015317;28;20091;-80
2022/12/12 06:38:46;;;;;;;45.90;19.30;;;;;;;-5.86;100.00;101231.75;5015358;28;20374;-80
2022/12/12 06:41:13;;;;;;;41.63;16.60;;;;;;;-5.86;100.00;101230.91;5012750;28;20083;-80
2022/12/12 06:43:39;;;;;;;46.22;18.52;;;;;;;-5.93;100.00;101228.09;5012827;28;20034;-80
2022/12/12 06:53:15;;;;;;;;;;;;;;;;;;;;;
2022/12/12 06:56:08;;;;;;;47.75;18.15;;;;;;;-6.51;100.00;101149.06;4820358;29;20035;-79
2022/12/12 06:58:35;;;;;;;43.28;16.70;;;;;;;-5.94;100.00;101251.75;4805758;29;20046;-80
2022/12/12 07:01:07;;;;;;;39.83;17.45;;;;;;;-6.48;100.00;101145.81;4898730;29;20048;-80
2022/12/12 07:04:09;;;;;;;44.65;17.13;;;;;;;-6.72;100.00;101115.03;4914708;29;20051;-79
2022/12/12 07:06:41;;;;;;;62.45;19.88;;;;;;;-6.15;100.00;101222.75;4878249;29;20040;-79
2022/12/12 07:09:07;;;;;;;48.78;17.33;;;;;;;-5.96;100.00;101250.78;4909329;29;20515;-80
2022/12/12 07:11:32;;;;;;;54.88;17.33;;;;;;;-5.96;100.00;101247.38;4922298;28;20039;-78
2022/12/12 07:13:58;;;;;;;45.45;17.27;;;;;;;-5.92;100.00;101264.47;5006490;28;20042;-80
2022/12/12 07:16:24;;;;;;;46.13;16.90;;;;;;;-5.98;100.00;101254.94;5010047;28;20160;-79
2022/12/12 07:18:49;;;;;;;52.28;17.05;;;;;;;-5.94;100.00;101259.38;5011988;28;20026;-80
2022/12/12 07:21:17;;;;;;;46.38;16.85;;;;;;;-5.98;100.00;101262.56;5013472;28;20033;-74
2022/12/12 07:23:43;;;;;;;50.28;18.83;;;;;;;-6.00;100.00;101264.13;5013940;28;20029;-79
2022/12/12 07:26:12;;;;;;;46.28;18.10;;;;;;;-5.98;100.00;101270.16;5011009;28;20041;-79
2022/12/12 07:28:37;;;;;;;45.15;17.00;;;;;;;-6.00;100.00;101273.41;5006929;28;20026;-79
2022/12/12 07:31:08;;;;;;;47.70;19.00;;;;;;;-6.00;100.00;101279.38;5013041;28;20052;-78
2022/12/12 07:33:34;;;;;;;43.95;17.23;;;;;;;-6.03;100.00;101276.66;5010699;28;20022;-78
2022/12/12 07:36:00;;;;;;;42.42;17.60;;;;;;;-6.02;100.00;101285.16;5010561;28;20084;-78
2022/12/12 07:38:25;;;;;;;52.22;17.92;;;;;;;-6.07;100.00;101274.78;5010501;28;20089;-79
2022/12/12 07:40:51;;;;;;;44.08;17.50;;;;;;;-6.13;100.00;101279.53;5010353;28;20037;-78
2022/12/12 07:43:16;;;;;;;43.17;16.65;;;;;;;-6.15;100.00;101284.56;5013409;28;20033;-78
2022/12/12 07:45:46;;;;;;;46.88;16.95;;;;;;;-6.18;100.00;101283.50;5012003;28;20524;-78
2022/12/12 07:48:12;;;;;;;46.58;18.13;;;;;;;-6.18;100.00;101296.19;5012302;28;20076;-80
2022/12/12 07:50:38;;;;;;;49.15;17.80;;;;;;;-6.28;100.00;101282.16;5013483;28;20029;-78
2022/12/12 07:53:03;;;;;;;47.88;17.63;;;;;;;-6.23;100.00;101295.09;5012955;28;20033;-80
2022/12/12 07:55:29;;;;;;;46.75;18.05;;;;;;;-6.22;100.00;101296.84;5013338;28;20110;-80
2022/12/12 07:57:55;;;;;;;39.95;16.27;;;;;;;-6.20;100.00;101300.34;5009376;28;20048;-80
2022/12/12 08:00:20;;;;;;;50.15;17.27;;;;;;;-6.20;100.00;101301.19;5012916;28;20049;-79
2022/12/12 08:02:47;;;;;;;41.42;17.38;;;;;;;-6.21;100.00;101304.53;5012773;28;20461;-79
2022/12/12 08:05:12;;;;;;;40.65;17.10;;;;;;;-6.24;100.00;101296.78;5012506;28;20505;-79
2022/12/12 08:07:37;;;;;;;44.28;17.10;;;;;;;-6.19;100.00;101317.28;5009213;28;20061;-79
2022/12/12 08:10:03;;;;;;;43.63;18.27;;;;;;;-6.18;100.00;101316.50;5011256;28;20116;-76
2022/12/12 08:12:29;;;;;;;47.85;18.25;;;;;;;-6.16;100.00;101320.00;5008820;28;20026;-80
2022/12/12 08:14:55;;;;;;;50.50;17.35;;;;;;;-6.21;100.00;101311.28;5012065;28;20030;-79
2022/12/12 08:17:20;;;;;;;53.42;18.67;;;;;;;-6.13;100.00;101321.03;5011131;28;20473;-78
2022/12/12 08:19:46;;;;;;;45.47;17.70;;;;;;;-6.08;100.00;101317.84;5012071;28;20029;-79
2022/12/12 08:22:11;;;;;;;47.55;18.10;;;;;;;-6.04;100.00;101314.69;5011662;28;20030;-79
2022/12/12 08:24:36;;;;;;;49.35;16.80;;;;;;;-5.97;100.00;101317.59;5011662;28;20022;-86
2022/12/12 08:27:02;;;;;;;47.17;17.15;;;;;;;-6.26;100.00;101269.56;5009430;28;20120;-79
2022/12/12 08:29:27;;;;;;;52.60;18.58;;;;;;;-5.92;100.00;101316.16;5011518;28;20065;-85
2022/12/12 08:31:52;;;;;;;49.13;18.23;;;;;;;-5.95;100.00;101307.50;5010950;28;20041;-81
2022/12/12 08:34:18;;;;;;;43.65;16.35;;;;;;;-5.85;100.00;101326.59;5011256;28;20497;-79
2022/12/12 08:36:44;;;;;;;50.90;17.65;;;;;;;-5.82;100.00;101330.19;5007305;28;20386;-80
2022/12/12 08:39:11;;;;;;;51.20;17.80;;;;;;;-5.78;100.00;101329.53;5010718;28;20049;-79
2022/12/12 08:41:39;;;;;;;46.85;17.48;;;;;;;-5.73;100.00;101328.06;5012515;28;20029;-78
2022/12/12 08:44:07;;;;;;;55.70;19.00;;;;;;;-5.74;100.00;101316.19;5009106;28;20026;-79
2022/12/12 08:46:33;;;;;;;49.75;18.85;;;;;;;-5.62;100.00;101323.56;5008940;28;20045;-79
2022/12/12 08:48:58;;;;;;;55.22;19.15;;;;;;;-5.61;100.00;101324.41;5008836;28;20036;-79
2022/12/12 08:51:23;;;;;;;48.42;18.73;;;;;;;-5.61;100.00;101319.34;5004368;28;20101;-79
2022/12/12 08:53:50;;;;;;;45.47;16.95;;;;;;;-5.54;100.00;101326.47;5010847;28;20033;-76
2022/12/12 08:56:17;;;;;;;55.95;21.65;;;;;;;-5.51;100.00;101329.16;5009706;28;20034;-79
2022/12/12 08:58:43;;;;;;;56.80;17.55;;;;;;;-5.57;100.00;101314.47;5010003;28;20073;-80
2022/12/12 09:01:14;;;;;;;49.33;17.42;;;;;;;-5.53;100.00;101323.13;5006707;28;20073;-80
2022/12/12 09:03:40;;;;;;;51.42;17.38;;;;;;;-5.49;100.00;101323.34;5009714;28;20038;-79
2022/12/12 09:06:06;;;;;;;48.58;18.67;;;;;;;-5.42;100.00;101334.69;5011743;28;20037;-79
2022/12/12 09:08:33;;;;;;;47.97;17.33;;;;;;;-5.35;100.00;101336.72;5008102;28;20386;-80
2022/12/12 09:10:58;;;;;;;54.05;18.05;;;;;;;-5.33;100.00;101319.91;5010857;28;20515;-79
2022/12/12 09:13:24;;;;;;;56.58;18.02;;;;;;;-5.24;100.00;101332.16;5008848;28;20045;-79
2022/12/12 09:15:50;;;;;;;54.40;18.02;;;;;;;-5.21;100.00;101339.94;5011572;28;20018;-79
2022/12/12 09:18:15;;;;;;;51.28;17.88;;;;;;;-5.17;100.00;101346.91;5012215;28;20029;-79
2022/12/12 09:20:41;;;;;;;51.03;18.00;;;;;;;-5.11;100.00;101338.72;5009243;28;20117;-79
2022/12/12 09:23:06;;;;;;;47.85;18.45;;;;;;;-5.06;100.00;101340.69;5011937;28;20037;-79
2022/12/12 09:25:31;;;;;;;47.20;17.70;;;;;;;-5.07;100.00;101326.22;5010922;28;20053;-79
2022/12/12 09:27:57;;;;;;;51.97;17.13;;;;;;;-4.95;100.00;101342.03;5009028;28;20499;-79
2022/12/12 09:30:22;;;;;;;55.72;18.05;;;;;;;-5.11;100.00;101309.06;5011162;28;20455;-79
2022/12/12 09:32:47;;;;;;;52.58;18.58;;;;;;;-4.86;100.00;101345.84;5009477;28;20421;-79
2022/12/12 09:35:13;;;;;;;46.42;17.42;;;;;;;-4.82;100.00;101335.84;5004677;28;20037;-77
2022/12/12 09:37:38;;;;;;;46.13;17.17;;;;;;;-4.83;100.00;101333.25;5008095;28;20033;-79
2022/12/12 09:40:04;;;;;;;54.63;17.02;;;;;;;-4.76;100.00;101330.19;5010531;28;20104;-80
2022/12/12 09:42:31;;;;;;;70.25;27.35;;;;;;;-4.81;100.00;101317.25;4998362;28;20405;-80
2022/12/12 09:45:06;;;;;;;53.60;19.67;;;;;;;-4.76;100.00;101322.56;5009603;28;20033;-80
2022/12/12 09:47:49;;;;;;;49.35;17.58;;;;;;;-4.70;100.00;101327.94;5010290;28;20493;-79
2022/12/12 09:50:26;;;;;;;54.70;17.73;;;;;;;-4.64;100.00;101332.41;5003407;28;20050;-79
2022/12/12 09:52:55;;;;;;;47.50;15.88;;;;;;;-4.58;100.00;101336.13;5016125;28;20018;-80
2022/12/12 09:55:25;;;;;;;47.70;16.17;;;;;;;-4.56;100.00;101326.00;5008039;23;20419;-80
2022/12/12 09:58:22;;;;;;;42.55;16.83;;;;;;;-4.55;100.00;101328.63;4999632;28;20030;-79
2022/12/12 10:00:57;;;;;;;51.40;18.38;;;;;;;-4.58;100.00;101312.34;4986709;28;20042;-81
2022/12/12 10:04:03;;;;;;;51.92;17.30;;;;;;;-4.47;100.00;101324.75;4993092;28;20034;-80
2022/12/12 10:06:40;;;;;;;50.83;17.02;;;;;;;-4.48;100.00;101309.41;4988921;28;20035;-80
2022/12/12 10:09:33;;;;;;;42.33;15.48;;;;;;;-4.37;100.00;101332.81;4990479;28;20030;-80
2022/12/12 10:12:01;;;;;;;48.03;17.70;;;;;;;-4.37;100.00;101326.03;4994857;28;20124;-80
2022/12/12 10:14:35;;;;;;;45.00;16.58;;;;;;;-4.39;100.00;101303.88;4994685;28;20036;-81
2022/12/12 10:17:05;;;;;;;49.60;17.58;;;;;;;-4.23;100.00;101326.66;4990753;28;20030;-81
2022/12/12 10:19:34;;;;;;;45.85;16.10;;;;;;;-4.23;100.00;101316.47;4994493;28;20552;-79
2022/12/12 10:22:15;;;;;;;46.95;18.17;;;;;;;-4.17;100.00;101321.81;4986286;28;20029;-80
2022/12/12 10:25:19;;;;;;;41.75;16.58;;;;;;;-4.10;100.00;101328.94;4995442;28;20034;-81
2022/12/12 10:27:45;;;;;;;44.47;16.10;;;;;;;-4.22;100.00;101302.06;4981895;28;20034;-81
2022/12/12 10:30:19;;;;;;;42.55;16.90;;;;;;;-4.10;100.00;101316.19;4995944;28;20019;-81
2022/12/12 10:33:13;;;;;;;49.25;16.58;;;;;;;-4.10;100.00;101313.66;4995284;28;20028;-82
2022/12/12 10:36:09;;;;;;;47.55;17.15;;;;;;;-4.02;100.00;101325.06;4992186;28;20026;-81
2022/12/12 10:38:57;;;;;;;43.88;16.63;;;;;;;-3.98;100.00;101312.44;5000358;28;20496;-79
2022/12/12 10:41:44;;;;;;;45.03;15.20;;;;;;;-4.01;100.00;101301.31;4981762;28;20038;-80
2022/12/12 10:44:26;;;;;;;36.05;16.40;;;;;;;-3.97;100.00;101298.91;4995622;28;20037;-84
2022/12/12 10:47:06;;;;;;;36.63;15.48;;;;;;;-3.87;100.00;101301.91;4988562;28;20646;-80
2022/12/12 10:49:32;;;;;;;41.38;16.73;;;;;;;-3.84;100.00;101306.25;4993663;28;20029;-78
2022/12/12 10:52:03;;;;;;;42.28;15.88;;;;;;;-3.85;100.00;101301.97;4995685;28;20373;-83
2022/12/12 10:54:34;;;;;;;41.78;15.57;;;;;;;-3.81;100.00;101306.38;4994435;28;20030;-80
2022/12/12 10:57:05;;;;;;;40.42;15.45;;;;;;;-3.77;100.00;101314.22;4994952;28;20073;-73
2022/12/12 10:59:38;;;;;;;42.28;16.30;;;;;;;-3.69;100.00;101314.56;4990856;28;20393;-75
2022/12/12 11:02:24;;;;;;;43.72;15.43;;;;;;;-3.63;100.00;101316.47;4993781;28;20010;-77
2022/12/12 11:05:16;;;;;;;42.38;16.75;;;;;;;-3.61;100.00;101305.53;4984724;28;20081;-75
2022/12/12 11:07:45;;;;;;;40.45;15.70;;;;;;;-3.53;100.00;101303.31;4983713;28;20140;-74
2022/12/12 11:10:20;;;;;;;48.75;16.45;;;;;;;-3.48;100.00;101301.81;4994934;28;20027;-75
2022/12/12 11:12:54;;;;;;;44.63;17.52;;;;;;;-3.46;100.00;101295.09;4987304;28;20066;-75
2022/12/12 11:15:19;;;;;;;45.38;16.77;;;;;;;-3.45;100.00;101293.44;4986093;28;20034;-75
2022/12/12 11:17:45;;;;;;;44.08;16.25;;;;;;;-3.45;100.00;101295.97;4995181;28;20030;-75
2022/12/12 11:20:17;;;;;;;37.50;15.30;;;;;;;-3.44;100.00;101288.38;4991160;28;20030;-75
2022/12/12 11:22:43;;;;;;;43.22;16.20;;;;;;;-3.44;100.00;101277.31;4994391;28;20026;-74
2022/12/12 11:25:29;;;;;;;46.92;17.45;;;;;;;-3.39;100.00;101280.94;4995103;28;20030;-75
2022/12/12 11:27:58;;;;;;;39.92;15.50;;;;;;;-3.28;100.00;101292.41;4994371;28;20023;-75
2022/12/12 11:30:41;;;;;;;33.67;14.32;;;;;;;-3.24;100.00;101290.84;4994052;28;20022;-74
2022/12/12 11:33:09;;;;;;;37.83;15.32;;;;;;;-3.19;100.00;101295.34;4994958;28;20031;-76
2022/12/12 11:35:39;;;;;;;37.92;15.20;;;;;;;-3.17;100.00;101275.88;4993816;28;20033;-75
2022/12/12 11:38:19;;;;;;;37.13;15.10;;;;;;;-3.11;100.00;101283.75;4994740;28;20033;-75
2022/12/12 11:40:56;;;;;;;38.97;15.73;;;;;;;-3.23;100.00;101242.47;4994584;28;20029;-81